Aérodrome :
LOGIN :

S'inscrire | Disclaimer

   EN    FR    IT 

 










Légende :    VFR   VFR Marginal   IFR   IFR Intensif   IFR Très Intensif
Visi : 
Plafond : 
>= 8 km
>= 3000ft
5 à 8 km
1000 à 3000 ft
1500m à 5 km
500 à 1000 ft
800 à 1500m
200 à 500 ft
< 800m
< 200 ft
Symboles :   Orages  Brouillard  Fortes neiges  Fortes précipitations  Vent > 20 kt
SIGMETs :   Divers  Orages  Givrage  Turbulence  Onde Orograph.  Cendres Volcan.







- Altitude de l'aérodrome : 1487 ft
- Code IATA : MUC


EDDM - München Franz Josef Strauss

DERNIER METAR :
  • 161950Z 34002KT CAVOK 18/15 Q1013 NOSIG

METARs EXPIRÉS :
  • 161920Z 34002KT CAVOK 20/14 Q1013 NOSIG
  • 161850Z 05003KT CAVOK 21/14 Q1013 NOSIG
  • 161820Z 04004KT 010V070 CAVOK 22/13 Q1012 NOSIG
  • 161750Z 01004KT 310V070 CAVOK 23/14 Q1012 NOSIG
  • 161720Z 03003KT 340V070 CAVOK 23/13 Q1012 NOSIG

TAF TAF EDDM
Valide du 16 à 18h jusqu'au 18 à 00h UTC


161700Z 1618/1724 VRB03KT CAVOK
BECMG 1706/1708 27010KT
PROB30
TEMPO 1712/1716 28020G35KT TSRA SCT050CB
BECMG 1719/1721 25005KT
Pas de NOTAMs connus pour ce terrain.



MET'MAP, la Météo Aéronautique d'un coup d'oeil ! - Copyright ORBIFLY Décembre 2007 - Disclaimer

ORBIFLY MET'MAP TEAM :

Programmation & Développement : Alexandra Zaïnal
Conception & Développement : Baudouin d'Aumeries
Co-Programmation & Développement : Marc-Olivier Méhu
Soutien technique & logistique : Manuel Goepfert

Contact : metmap@orbifly.com




SOURCES & CREDITS :

   NOAA